Time;durP1;ratioP1;P1;durP2;ratioP2;P2;SDS_P1;SDS_P2;PMS_P1;PMS_P2;Temp;Humidity;BMP_temperature;BMP_pressure;BME280_temperature;BME280_humidity;BME280_pressure;Samples;Min_cycle;Max_cycle;Signal;HPM_P1;HPM_P2
2021/07/12 00:00:51;;;;;;;13.70;12.60;;;;;;;;;;5013487;28;20446;-62
2021/07/12 00:03:20;;;;;;;13.10;11.90;;;;;;;;;;5013497;28;20469;-62
2021/07/12 00:05:47;;;;;;;13.63;12.53;;;;;;;;;;5013593;28;20446;-62
2021/07/12 00:08:14;;;;;;;13.30;12.20;;;;;;;;;;5013251;28;20445;-63
2021/07/12 00:10:41;;;;;;;13.63;12.43;;;;;;;;;;5013573;28;20453;-64
2021/07/12 00:13:09;;;;;;;13.77;12.63;;;;;;;;;;5013089;28;20485;-62
2021/07/12 00:15:36;;;;;;;13.57;12.47;;;;;;;;;;5013479;28;20846;-63
2021/07/12 00:18:04;;;;;;;13.17;12.17;;;;;;;;;;5013499;28;20452;-62
2021/07/12 00:20:33;;;;;;;13.20;12.20;;;;;;;;;;5013428;28;20446;-62
2021/07/12 00:23:00;;;;;;;14.17;13.07;;;;;;;;;;5013687;28;20458;-62
2021/07/12 00:25:29;;;;;;;13.27;12.17;;;;;;;;;;5017431;28;20442;-62
2021/07/12 00:27:57;;;;;;;13.37;12.37;;;;;;;;;;5017133;28;20508;-62
2021/07/12 00:30:24;;;;;;;12.07;11.07;;;;;;;;;;5017352;28;20446;-62
2021/07/12 00:32:53;;;;;;;13.50;12.43;;;;;;;;;;5017180;28;20492;-62
2021/07/12 00:35:20;;;;;;;13.87;12.67;;;;;;;;;;5017268;28;20500;-61
2021/07/12 00:37:49;;;;;;;13.57;12.47;;;;;;;;;;5016922;28;20946;-61
2021/07/12 00:40:18;;;;;;;14.00;12.90;;;;;;;;;;5016845;28;20453;-61
2021/07/12 00:42:46;;;;;;;13.40;12.33;;;;;;;;;;5016741;28;20485;-61
2021/07/12 00:45:16;;;;;;;13.70;12.53;;;;;;;;;;5017205;28;20461;-60
2021/07/12 00:47:44;;;;;;;14.37;12.97;;;;;;;;;;5017234;28;20446;-61
2021/07/12 00:50:13;;;;;;;13.73;12.53;;;;;;;;;;5016670;28;20974;-62
2021/07/12 00:52:40;;;;;;;14.23;13.03;;;;;;;;;;5016433;28;20474;-62
2021/07/12 00:55:14;;;;;;;14.20;12.80;;;;;;;;;;5016676;28;20461;-62
2021/07/12 00:57:42;;;;;;;13.77;12.67;;;;;;;;;;5016706;28;20434;-61
2021/07/12 01:00:10;;;;;;;13.67;12.57;;;;;;;;;;5016556;28;20445;-61
2021/07/12 01:02:37;;;;;;;13.20;12.17;;;;;;;;;;5016689;28;20470;-60
2021/07/12 01:05:06;;;;;;;14.40;12.97;;;;;;;;;;5016525;28;20929;-61
2021/07/12 01:07:33;;;;;;;13.43;12.23;;;;;;;;;;5016454;28;20817;-61
2021/07/12 01:10:01;;;;;;;14.00;12.80;;;;;;;;;;5016307;28;20791;-61
2021/07/12 01:12:34;;;;;;;14.07;12.67;;;;;;;;;;5016727;28;20519;-61
2021/07/12 01:15:03;;;;;;;13.77;12.63;;;;;;;;;;5016703;28;20437;-61
2021/07/12 01:17:33;;;;;;;14.00;12.67;;;;;;;;;;5016197;28;20950;-61
2021/07/12 01:20:22;;;;;;;14.57;13.27;;;;;;;;;;5016417;28;20448;-60
2021/07/12 01:22:58;;;;;;;14.07;12.87;;;;;;;;;;5016455;28;20474;-63
2021/07/12 01:25:55;;;;;;;13.10;11.97;;;;;;;;;;5016518;28;20504;-62
2021/07/12 01:28:50;;;;;;;12.30;11.10;;;;;;;;;;5016477;28;20434;-62
2021/07/12 01:31:42;;;;;;;11.83;10.87;;;;;;;;;;5016046;28;20437;-62
2021/07/12 01:34:13;;;;;;;12.40;11.40;;;;;;;;;;5016495;28;20470;-64
2021/07/12 01:36:42;;;;;;;10.40;9.60;;;;;;;;;;5016067;28;20431;-62
2021/07/12 01:39:12;;;;;;;12.10;11.20;;;;;;;;;;5016684;28;20448;-63
2021/07/12 01:41:44;;;;;;;11.23;10.23;;;;;;;;;;5016916;28;20840;-63
2021/07/12 01:44:15;;;;;;;11.13;10.23;;;;;;;;;;5017321;28;20426;-62
2021/07/12 01:46:47;;;;;;;11.57;10.57;;;;;;;;;;5016752;28;20789;-62
2021/07/12 01:49:21;;;;;;;12.30;11.20;;;;;;;;;;5016568;28;20438;-63
2021/07/12 01:51:53;;;;;;;11.20;10.30;;;;;;;;;;5016382;28;20481;-63
2021/07/12 01:54:28;;;;;;;11.13;10.20;;;;;;;;;;5015895;28;20855;-63
2021/07/12 01:56:57;;;;;;;12.07;10.87;;;;;;;;;;5015682;28;20434;-63
2021/07/12 01:59:26;;;;;;;10.77;9.87;;;;;;;;;;5015918;28;20458;-62
2021/07/12 02:01:53;;;;;;;11.13;10.23;;;;;;;;;;5015906;28;20466;-62
2021/07/12 02:04:26;;;;;;;11.00;10.00;;;;;;;;;;5015824;28;20457;-63
2021/07/12 02:06:55;;;;;;;10.90;9.90;;;;;;;;;;5015558;28;20894;-63
2021/07/12 02:09:23;;;;;;;10.00;9.20;;;;;;;;;;5015694;28;20454;-63
2021/07/12 02:11:50;;;;;;;9.50;8.70;;;;;;;;;;5015169;28;20462;-63
2021/07/12 02:14:18;;;;;;;10.23;9.43;;;;;;;;;;5015600;28;20482;-63
2021/07/12 02:16:46;;;;;;;10.27;9.47;;;;;;;;;;5015174;28;20811;-62
2021/07/12 02:19:15;;;;;;;9.33;8.53;;;;;;;;;;5015415;28;20457;-63
2021/07/12 02:21:44;;;;;;;10.00;8.90;;;;;;;;;;5016071;28;20546;-62
2021/07/12 02:24:12;;;;;;;9.70;8.90;;;;;;;;;;5016308;28;20446;-62
2021/07/12 02:26:40;;;;;;;9.80;8.80;;;;;;;;;;5015414;28;20465;-63
2021/07/12 02:29:11;;;;;;;9.40;8.60;;;;;;;;;;5015141;28;20450;-63
2021/07/12 02:31:39;;;;;;;9.30;8.60;;;;;;;;;;5015488;28;20454;-63
2021/07/12 02:34:07;;;;;;;9.47;8.77;;;;;;;;;;5015592;28;20843;-63
2021/07/12 02:36:35;;;;;;;9.50;8.60;;;;;;;;;;5014952;28;20446;-62
2021/07/12 02:39:04;;;;;;;9.07;8.17;;;;;;;;;;5014888;28;21057;-62
2021/07/12 02:41:32;;;;;;;9.50;8.70;;;;;;;;;;5014891;28;20452;-63
2021/07/12 02:44:01;;;;;;;12.73;8.47;;;;;;;;;;5014928;28;20441;-62
2021/07/12 02:46:30;;;;;;;10.40;9.53;;;;;;;;;;5014233;28;20468;-62
2021/07/12 02:48:58;;;;;;;9.97;9.17;;;;;;;;;;5014369;28;20445;-62
2021/07/12 02:51:28;;;;;;;10.60;9.63;;;;;;;;;;5014331;28;20450;-64
2021/07/12 02:54:01;;;;;;;10.20;9.30;;;;;;;;;;5015768;28;20470;-62
2021/07/12 02:56:30;;;;;;;10.13;9.23;;;;;;;;;;5014460;28;20914;-63
2021/07/12 02:58:58;;;;;;;15.90;9.27;;;;;;;;;;5014329;28;20446;-61
2021/07/12 03:01:25;;;;;;;10.50;9.50;;;;;;;;;;5014591;28;20446;-61
2021/07/12 03:03:54;;;;;;;10.17;9.37;;;;;;;;;;5014288;28;20965;-63
2021/07/12 03:06:22;;;;;;;10.40;9.50;;;;;;;;;;5014225;28;20886;-63
2021/07/12 03:08:53;;;;;;;10.03;9.13;;;;;;;;;;5014791;28;20446;-63
2021/07/12 03:11:21;;;;;;;9.13;8.33;;;;;;;;;;5014322;28;20792;-63
2021/07/12 03:13:53;;;;;;;9.90;9.00;;;;;;;;;;5014311;28;20489;-61
2021/07/12 03:16:20;;;;;;;10.70;9.80;;;;;;;;;;5014512;28;20422;-61
2021/07/12 03:18:49;;;;;;;10.50;9.50;;;;;;;;;;5014368;28;20450;-61
2021/07/12 03:21:16;;;;;;;10.70;9.70;;;;;;;;;;5014231;28;20463;-61
2021/07/12 03:23:44;;;;;;;10.70;9.70;;;;;;;;;;5013945;28;20441;-61
2021/07/12 03:26:13;;;;;;;9.30;8.57;;;;;;;;;;5014139;28;20450;-61
2021/07/12 03:28:40;;;;;;;9.83;8.80;;;;;;;;;;5014182;28;20454;-62
2021/07/12 03:31:10;;;;;;;9.17;8.37;;;;;;;;;;5013824;28;20457;-61
2021/07/12 03:33:38;;;;;;;10.60;9.80;;;;;;;;;;5014111;28;20482;-61
2021/07/12 03:36:06;;;;;;;9.70;8.70;;;;;;;;;;5013741;28;20442;-61
2021/07/12 03:38:33;;;;;;;10.50;9.70;;;;;;;;;;5013756;28;20442;-61
2021/07/12 03:41:01;;;;;;;9.80;9.00;;;;;;;;;;5013733;28;20453;-62
2021/07/12 03:43:29;;;;;;;9.70;8.73;;;;;;;;;;5013866;28;20524;-61
2021/07/12 03:45:58;;;;;;;9.33;8.50;;;;;;;;;;5014155;28;20476;-61
2021/07/12 03:48:36;;;;;;;9.60;8.57;;;;;;;;;;5014070;28;20454;-61
2021/07/12 03:51:04;;;;;;;8.90;8.00;;;;;;;;;;5013780;28;20817;-62
2021/07/12 03:53:33;;;;;;;9.13;8.40;;;;;;;;;;5014054;28;20478;-61
2021/07/12 03:56:00;;;;;;;8.47;7.77;;;;;;;;;;5014545;28;20453;-60
2021/07/12 03:58:28;;;;;;;7.93;7.23;;;;;;;;;;5013663;28;20442;-61
2021/07/12 04:00:55;;;;;;;8.33;7.67;;;;;;;;;;5013577;28;20461;-62
2021/07/12 04:03:22;;;;;;;6.90;6.40;;;;;;;;;;5013517;28;20977;-62
2021/07/12 04:08:19;;;;;;;7.33;6.67;;;;;;;;;;5091529;27;20534;-62
2021/07/12 04:10:46;;;;;;;6.40;5.87;;;;;;;;;;5090853;28;20450;-62
2021/07/12 04:13:14;;;;;;;6.40;5.90;;;;;;;;;;5090677;28;20481;-61
2021/07/12 04:15:42;;;;;;;6.20;5.70;;;;;;;;;;5090799;28;20453;-61
2021/07/12 04:18:09;;;;;;;6.20;5.70;;;;;;;;;;5090927;28;20450;-62
2021/07/12 04:20:37;;;;;;;6.40;5.90;;;;;;;;;;5091111;28;20443;-62
2021/07/12 04:23:05;;;;;;;5.20;4.70;;;;;;;;;;5091052;28;21005;-60
2021/07/12 04:25:34;;;;;;;6.57;5.20;;;;;;;;;;5090890;28;20819;-61
2021/07/12 04:28:01;;;;;;;5.80;5.30;;;;;;;;;;5090831;28;20481;-61
2021/07/12 04:30:28;;;;;;;6.50;5.90;;;;;;;;;;5090521;28;20445;-62
2021/07/12 04:32:56;;;;;;;6.90;6.20;;;;;;;;;;5090718;28;20469;-61
2021/07/12 04:35:23;;;;;;;8.93;5.03;;;;;;;;;;5090519;28;20564;-61
2021/07/12 04:37:50;;;;;;;6.00;5.40;;;;;;;;;;5090486;28;20441;-63
2021/07/12 04:40:18;;;;;;;5.57;4.90;;;;;;;;;;5089996;28;20445;-62
2021/07/12 04:42:46;;;;;;;5.20;4.80;;;;;;;;;;5089936;28;20980;-63
2021/07/12 04:45:14;;;;;;;8.50;4.90;;;;;;;;;;5090224;28;20457;-62
2021/07/12 04:47:41;;;;;;;5.50;5.03;;;;;;;;;;5090223;28;20482;-62
2021/07/12 04:50:09;;;;;;;5.40;5.00;;;;;;;;;;5089948;28;20452;-62
2021/07/12 04:52:37;;;;;;;4.70;4.30;;;;;;;;;;5089879;28;20470;-62
2021/07/12 04:55:06;;;;;;;4.73;3.83;;;;;;;;;;5089747;28;20934;-61
2021/07/12 04:57:33;;;;;;;8.83;5.30;;;;;;;;;;5089608;28;20483;-61
2021/07/12 05:00:02;;;;;;;6.20;4.90;;;;;;;;;;5089486;28;20475;-62
2021/07/12 05:02:29;;;;;;;4.50;4.10;;;;;;;;;;5089638;28;20479;-63
2021/07/12 05:04:57;;;;;;;5.27;4.27;;;;;;;;;;5089914;28;20451;-64
2021/07/12 05:07:25;;;;;;;8.47;4.77;;;;;;;;;;5089614;28;20486;-61
2021/07/12 05:09:53;;;;;;;5.90;5.00;;;;;;;;;;5089778;28;20547;-64
2021/07/12 05:12:21;;;;;;;5.20;4.70;;;;;;;;;;5089980;28;20460;-67
2021/07/12 05:14:48;;;;;;;6.50;4.93;;;;;;;;;;5089574;28;20524;-62
2021/07/12 05:17:17;;;;;;;5.97;4.23;;;;;;;;;;5089878;28;20440;-63
2021/07/12 05:19:45;;;;;;;5.37;4.87;;;;;;;;;;5076308;28;20455;-64
2021/07/12 05:22:12;;;;;;;9.27;6.03;;;;;;;;;;5076026;28;20486;-63
2021/07/12 05:24:39;;;;;;;5.40;5.00;;;;;;;;;;5075638;28;20883;-62
2021/07/12 05:27:07;;;;;;;6.63;5.13;;;;;;;;;;5076559;28;20489;-62
2021/07/12 05:29:34;;;;;;;5.57;5.07;;;;;;;;;;5075927;28;20444;-61
2021/07/12 05:32:01;;;;;;;5.87;5.30;;;;;;;;;;5076447;28;20471;-63
2021/07/12 05:34:30;;;;;;;7.57;5.60;;;;;;;;;;5076350;28;20448;-64
2021/07/12 05:36:57;;;;;;;5.43;4.93;;;;;;;;;;5076164;28;20440;-63
2021/07/12 05:39:25;;;;;;;7.37;5.57;;;;;;;;;;5075979;28;20451;-64
2021/07/12 05:41:52;;;;;;;5.20;4.70;;;;;;;;;;5075616;28;20465;-63
2021/07/12 05:44:19;;;;;;;6.33;4.67;;;;;;;;;;5075342;28;20787;-62
2021/07/12 05:46:47;;;;;;;5.43;4.90;;;;;;;;;;5075172;28;20481;-62
2021/07/12 05:49:14;;;;;;;5.20;4.70;;;;;;;;;;5075263;28;20827;-63
2021/07/12 05:51:43;;;;;;;4.57;4.17;;;;;;;;;;5074898;28;20473;-62
2021/07/12 05:54:10;;;;;;;6.03;4.60;;;;;;;;;;5075037;28;20445;-62
2021/07/12 05:56:37;;;;;;;4.80;4.40;;;;;;;;;;5074781;28;20448;-63
2021/07/12 05:59:04;;;;;;;5.93;4.53;;;;;;;;;;5074832;28;20459;-62
2021/07/12 06:01:32;;;;;;;5.73;4.73;;;;;;;;;;5074610;28;20815;-63
2021/07/12 06:03:59;;;;;;;4.83;4.40;;;;;;;;;;5074862;28;20443;-62
2021/07/12 06:06:26;;;;;;;6.33;5.73;;;;;;;;;;5074275;28;20969;-59
2021/07/12 06:08:55;;;;;;;5.13;4.63;;;;;;;;;;5075051;28;20425;-63
2021/07/12 06:11:22;;;;;;;4.70;4.30;;;;;;;;;;5077457;28;20458;-61
2021/07/12 06:13:51;;;;;;;6.80;5.20;;;;;;;;;;5078048;28;20940;-61
2021/07/12 06:16:18;;;;;;;7.80;4.97;;;;;;;;;;5077976;28;20542;-62
2021/07/12 06:18:45;;;;;;;5.13;4.63;;;;;;;;;;5078202;28;20542;-61
2021/07/12 06:21:13;;;;;;;5.30;4.40;;;;;;;;;;5077048;28;20443;-63
2021/07/12 06:23:40;;;;;;;6.50;4.10;;;;;;;;;;5077785;28;20486;-61
2021/07/12 06:26:09;;;;;;;6.23;4.00;;;;;;;;;;5078227;28;20449;-61
2021/07/12 06:28:36;;;;;;;5.40;4.30;;;;;;;;;;5076732;28;20477;-61
2021/07/12 06:31:03;;;;;;;5.27;4.23;;;;;;;;;;5075191;28;20437;-61
2021/07/12 06:33:31;;;;;;;4.27;3.97;;;;;;;;;;5075570;28;20472;-63
2021/07/12 06:35:58;;;;;;;7.10;4.13;;;;;;;;;;5075251;28;20451;-62
2021/07/12 06:38:25;;;;;;;4.13;3.73;;;;;;;;;;5075788;28;20443;-62
2021/07/12 06:40:53;;;;;;;6.77;3.27;;;;;;;;;;5076308;28;20451;-62
2021/07/12 06:43:21;;;;;;;5.77;4.10;;;;;;;;;;5074523;28;20460;-62
2021/07/12 06:45:49;;;;;;;5.30;3.97;;;;;;;;;;5074093;28;20451;-62
2021/07/12 06:48:16;;;;;;;4.00;3.70;;;;;;;;;;5074214;28;20484;-61
2021/07/12 06:50:43;;;;;;;6.00;3.90;;;;;;;;;;5073824;28;20445;-62
2021/07/12 06:53:11;;;;;;;4.53;4.13;;;;;;;;;;5073916;28;20989;-62
2021/07/12 06:55:38;;;;;;;3.73;3.43;;;;;;;;;;5073841;28;20460;-66
2021/07/12 06:58:10;;;;;;;3.13;2.93;;;;;;;;;;5074502;28;20452;-62
2021/07/12 07:00:38;;;;;;;4.10;3.80;;;;;;;;;;5074961;28;20441;-63
2021/07/12 07:03:06;;;;;;;3.80;3.50;;;;;;;;;;5073591;28;20475;-62
2021/07/12 07:05:34;;;;;;;4.23;3.80;;;;;;;;;;5075046;28;20948;-62
2021/07/12 07:08:01;;;;;;;3.50;3.20;;;;;;;;;;5077659;28;20486;-62
2021/07/12 07:10:29;;;;;;;4.37;3.97;;;;;;;;;;5076554;28;20453;-62
2021/07/12 07:12:56;;;;;;;4.17;3.77;;;;;;;;;;5073851;28;20987;-63
2021/07/12 07:15:23;;;;;;;4.70;4.30;;;;;;;;;;5073510;28;20444;-61
2021/07/12 07:17:54;;;;;;;3.40;3.10;;;;;;;;;;5073458;28;20440;-62
2021/07/12 07:20:21;;;;;;;3.33;3.10;;;;;;;;;;5073750;28;20439;-62
2021/07/12 07:22:48;;;;;;;4.37;3.30;;;;;;;;;;5073559;28;20472;-62
2021/07/12 07:25:16;;;;;;;5.00;3.10;;;;;;;;;;5073291;28;20454;-60
2021/07/12 07:27:43;;;;;;;3.80;2.87;;;;;;;;;;5073439;28;20480;-61
2021/07/12 07:30:11;;;;;;;3.00;2.73;;;;;;;;;;5073485;28;20450;-62
2021/07/12 07:32:38;;;;;;;7.70;3.40;;;;;;;;;;5073150;28;20481;-62
2021/07/12 07:35:08;;;;;;;4.50;3.20;;;;;;;;;;5073402;28;20446;-61
2021/07/12 07:37:36;;;;;;;3.60;3.37;;;;;;;;;;5073352;28;20442;-63
2021/07/12 07:40:05;;;;;;;4.70;4.30;;;;;;;;;;5073185;28;20456;-62
2021/07/12 07:42:32;;;;;;;3.30;3.00;;;;;;;;;;5072478;28;20478;-62
2021/07/12 07:45:01;;;;;;;3.73;3.43;;;;;;;;;;5073123;28;20953;-61
2021/07/12 07:47:28;;;;;;;3.50;3.20;;;;;;;;;;5073427;28;20477;-62
2021/07/12 07:49:56;;;;;;;5.73;3.70;;;;;;;;;;5072906;28;20451;-62
2021/07/12 07:52:24;;;;;;;3.87;3.30;;;;;;;;;;5072969;28;20466;-61
2021/07/12 07:54:52;;;;;;;3.87;3.57;;;;;;;;;;5073224;28;20449;-62
2021/07/12 07:57:19;;;;;;;3.27;3.00;;;;;;;;;;5072849;28;20933;-61
2021/07/12 07:59:47;;;;;;;4.67;3.77;;;;;;;;;;5073057;28;20554;-62
2021/07/12 08:02:14;;;;;;;3.40;3.10;;;;;;;;;;5072420;28;20473;-62
2021/07/12 08:04:41;;;;;;;4.60;3.80;;;;;;;;;;5073015;28;20805;-62
2021/07/12 08:07:09;;;;;;;4.30;4.00;;;;;;;;;;5072716;28;20465;-63
2021/07/12 08:09:38;;;;;;;5.20;4.80;;;;;;;;;;5073224;28;20478;-61
2021/07/12 08:12:06;;;;;;;5.00;4.60;;;;;;;;;;5072649;28;20967;-62
2021/07/12 08:14:33;;;;;;;4.90;4.50;;;;;;;;;;5072884;28;20445;-62
2021/07/12 08:17:01;;;;;;;5.83;4.90;;;;;;;;;;5072933;28;20454;-62
2021/07/12 08:19:28;;;;;;;6.90;4.90;;;;;;;;;;5072499;28;20446;-61
2021/07/12 08:21:55;;;;;;;5.27;4.77;;;;;;;;;;5072496;28;20463;-60
2021/07/12 08:24:23;;;;;;;4.73;4.20;;;;;;;;;;5073324;28;20443;-61
2021/07/12 08:26:51;;;;;;;5.10;4.43;;;;;;;;;;5072828;28;20556;-60
2021/07/12 08:29:19;;;;;;;4.83;4.43;;;;;;;;;;5072282;28;20603;-61
2021/07/12 08:31:47;;;;;;;5.10;4.70;;;;;;;;;;5072659;28;20465;-63
2021/07/12 08:34:14;;;;;;;5.30;4.77;;;;;;;;;;5072509;28;20452;-63
2021/07/12 08:36:41;;;;;;;5.20;4.50;;;;;;;;;;5072744;28;20449;-62
2021/07/12 08:39:10;;;;;;;4.90;4.57;;;;;;;;;;5073202;28;20520;-62
2021/07/12 08:41:38;;;;;;;5.23;4.83;;;;;;;;;;5073100;28;20442;-60
2021/07/12 08:44:07;;;;;;;5.50;5.13;;;;;;;;;;5072491;28;20454;-62
2021/07/12 08:46:36;;;;;;;5.33;4.93;;;;;;;;;;5072452;28;20450;-60
2021/07/12 08:49:03;;;;;;;5.40;5.00;;;;;;;;;;5073215;28;20595;-61
2021/07/12 08:51:30;;;;;;;5.53;5.13;;;;;;;;;;5073601;28;20449;-62
2021/07/12 08:53:58;;;;;;;5.73;5.27;;;;;;;;;;5074783;28;20447;-63
2021/07/12 08:56:25;;;;;;;5.27;4.87;;;;;;;;;;5076096;28;20454;-63
2021/07/12 08:58:53;;;;;;;5.47;5.07;;;;;;;;;;5076310;28;20456;-62
2021/07/12 09:01:21;;;;;;;5.43;4.93;;;;;;;;;;5075864;28;20450;-62
2021/07/12 09:03:52;;;;;;;4.87;4.57;;;;;;;;;;5076091;28;20470;-62
2021/07/12 09:06:21;;;;;;;5.67;4.87;;;;;;;;;;5075915;28;20461;-62
2021/07/12 09:08:53;;;;;;;5.60;5.20;;;;;;;;;;5076685;28;20476;-62
2021/07/12 09:11:27;;;;;;;5.13;4.70;;;;;;;;;;5076377;28;20433;-63
2021/07/12 09:13:59;;;;;;;6.47;5.60;;;;;;;;;;5075950;28;20433;-62
2021/07/12 09:16:44;;;;;;;6.10;5.60;;;;;;;;;;5075510;28;20450;-63
2021/07/12 09:19:20;;;;;;;6.20;5.33;;;;;;;;;;5075888;28;20424;-62
2021/07/12 09:21:48;;;;;;;6.70;5.73;;;;;;;;;;5075575;28;20468;-61
2021/07/12 09:24:17;;;;;;;6.40;4.60;;;;;;;;;;5075383;28;20439;-62
2021/07/12 09:26:45;;;;;;;5.70;5.20;;;;;;;;;;5075521;28;21058;-61
2021/07/12 09:29:16;;;;;;;5.70;5.20;;;;;;;;;;5075513;28;20487;-62
2021/07/12 09:31:44;;;;;;;5.20;4.80;;;;;;;;;;5075561;28;20473;-62
2021/07/12 09:34:11;;;;;;;5.97;5.57;;;;;;;;;;5075396;28;20942;-63
2021/07/12 09:36:40;;;;;;;5.50;5.10;;;;;;;;;;5075300;28;20469;-61
2021/07/12 09:39:24;;;;;;;5.67;5.23;;;;;;;;;;5075631;28;20451;-61
2021/07/12 09:41:52;;;;;;;5.13;4.83;;;;;;;;;;5075044;28;20484;-61
2021/07/12 09:44:20;;;;;;;5.50;5.00;;;;;;;;;;5075084;28;20445;-63
2021/07/12 09:46:47;;;;;;;5.20;4.80;;;;;;;;;;5076715;28;20448;-65
2021/07/12 09:49:15;;;;;;;5.40;5.00;;;;;;;;;;5075324;28;20489;-62
2021/07/12 09:51:44;;;;;;;7.20;5.83;;;;;;;;;;5075156;28;20615;-62
2021/07/12 09:54:19;;;;;;;6.53;6.00;;;;;;;;;;5075275;28;20477;-61
2021/07/12 09:56:46;;;;;;;5.77;5.37;;;;;;;;;;5075086;28;20437;-61
2021/07/12 09:59:14;;;;;;;6.40;5.80;;;;;;;;;;5075252;28;20454;-61
2021/07/12 10:01:46;;;;;;;6.80;6.30;;;;;;;;;;5074800;28;20468;-61
2021/07/12 10:04:14;;;;;;;6.83;6.23;;;;;;;;;;5075246;28;20428;-62
2021/07/12 10:06:41;;;;;;;6.10;5.57;;;;;;;;;;5074902;28;20504;-62
2021/07/12 10:09:10;;;;;;;6.80;6.20;;;;;;;;;;5074972;28;20485;-60
2021/07/12 10:11:37;;;;;;;6.20;5.70;;;;;;;;;;5074474;28;20448;-61
2021/07/12 10:14:05;;;;;;;6.90;5.83;;;;;;;;;;5074729;28;20458;-62
2021/07/12 10:16:33;;;;;;;6.70;5.90;;;;;;;;;;5074821;28;20450;-61
2021/07/12 10:19:00;;;;;;;6.37;5.77;;;;;;;;;;5074980;28;20443;-59
2021/07/12 10:21:35;;;;;;;10.20;5.60;;;;;;;;;;5075582;28;20795;-61
2021/07/12 10:24:02;;;;;;;6.80;5.40;;;;;;;;;;5075700;28;20440;-60
2021/07/12 10:26:48;;;;;;;5.50;5.00;;;;;;;;;;5075602;28;20452;-61
2021/07/12 10:29:17;;;;;;;4.73;4.43;;;;;;;;;;5077041;28;20464;-61
2021/07/12 10:32:05;;;;;;;5.17;4.77;;;;;;;;;;5075397;28;20829;-64
2021/07/12 10:34:35;;;;;;;5.37;4.50;;;;;;;;;;5069422;28;20539;-60
2021/07/12 10:37:03;;;;;;;6.33;4.90;;;;;;;;;;5074145;28;20966;-61
2021/07/12 10:39:49;;;;;;;5.70;5.27;;;;;;;;;;5074250;28;20432;-60
2021/07/12 10:42:31;;;;;;;5.70;5.20;;;;;;;;;;5074370;28;20509;-61
2021/07/12 10:45:13;;;;;;;5.40;5.00;;;;;;;;;;5075827;28;20449;-61
2021/07/12 10:47:44;;;;;;;5.30;4.80;;;;;;;;;;5083936;28;20446;-61
2021/07/12 10:50:30;;;;;;;5.40;4.90;;;;;;;;;;5090439;28;20482;-61
2021/07/12 10:52:57;;;;;;;7.70;5.23;;;;;;;;;;5082793;28;20468;-61
2021/07/12 10:55:31;;;;;;;5.30;4.90;;;;;;;;;;5081754;28;20448;-61
2021/07/12 10:58:17;;;;;;;5.10;4.70;;;;;;;;;;5077814;28;20452;-61
2021/07/12 11:00:46;;;;;;;6.47;5.13;;;;;;;;;;5074508;28;20449;-60
2021/07/12 11:03:28;;;;;;;6.33;5.83;;;;;;;;;;5074123;28;20969;-61
2021/07/12 11:05:55;;;;;;;5.33;4.93;;;;;;;;;;5075351;28;20447;-60
2021/07/12 11:08:41;;;;;;;5.60;5.10;;;;;;;;;;5075619;28;20474;-61
2021/07/12 11:11:09;;;;;;;5.53;5.03;;;;;;;;;;5075937;28;20460;-62
2021/07/12 11:13:52;;;;;;;5.40;4.90;;;;;;;;;;5075911;28;20488;-59
2021/07/12 11:16:22;;;;;;;5.10;4.70;;;;;;;;;;5078009;28;20453;-60
2021/07/12 11:18:49;;;;;;;5.70;5.20;;;;;;;;;;5074988;28;20440;-61
2021/07/12 11:21:18;;;;;;;9.57;5.57;;;;;;;;;;5074334;28;20445;-61
2021/07/12 11:23:46;;;;;;;5.43;5.03;;;;;;;;;;5074051;28;20512;-61
2021/07/12 11:26:43;;;;;;;4.90;4.50;;;;;;;;;;5075008;28;20481;-62
2021/07/12 11:29:29;;;;;;;5.60;5.20;;;;;;;;;;5013047;28;20534;-61
2021/07/12 11:32:00;;;;;;;5.70;5.23;;;;;;;;;;5067833;28;20819;-60
2021/07/12 11:34:28;;;;;;;6.00;5.10;;;;;;;;;;5076360;28;20450;-62
2021/07/12 11:36:57;;;;;;;5.50;5.00;;;;;;;;;;5073905;28;20501;-60
2021/07/12 11:39:25;;;;;;;5.33;4.83;;;;;;;;;;5073508;28;20438;-61
2021/07/12 11:41:53;;;;;;;8.50;7.80;;;;;;;;;;5074015;28;20466;-62
2021/07/12 11:44:21;;;;;;;10.10;9.20;;;;;;;;;;5073553;28;20539;-61
2021/07/12 11:46:49;;;;;;;6.60;5.97;;;;;;;;;;5073552;28;20446;-61
2021/07/12 11:49:19;;;;;;;5.67;5.27;;;;;;;;;;5073304;28;20531;-61
2021/07/12 11:51:46;;;;;;;6.87;5.50;;;;;;;;;;5073438;28;20837;-61
2021/07/12 11:54:14;;;;;;;6.17;5.33;;;;;;;;;;5073643;28;20447;-61
2021/07/12 11:56:42;;;;;;;6.00;5.60;;;;;;;;;;5073009;28;20460;-61
2021/07/12 11:59:09;;;;;;;6.23;4.83;;;;;;;;;;5073294;28;20480;-60
2021/07/12 12:01:37;;;;;;;8.07;5.17;;;;;;;;;;5073154;28;20846;-61
2021/07/12 12:04:04;;;;;;;5.70;5.20;;;;;;;;;;5072945;28;20441;-62
2021/07/12 12:06:33;;;;;;;5.50;5.10;;;;;;;;;;5073044;28;20461;-60
2021/07/12 12:09:01;;;;;;;6.33;5.73;;;;;;;;;;5073397;28;20488;-61
2021/07/12 12:11:28;;;;;;;5.67;5.17;;;;;;;;;;5073179;28;20448;-63
2021/07/12 12:13:56;;;;;;;6.80;5.47;;;;;;;;;;5073058;28;20445;-62
2021/07/12 12:16:27;;;;;;;6.00;5.50;;;;;;;;;;5073882;28;20448;-61
2021/07/12 12:18:55;;;;;;;5.00;4.60;;;;;;;;;;5073433;28;20444;-61
2021/07/12 12:21:23;;;;;;;5.60;5.10;;;;;;;;;;5073651;28;20475;-61
2021/07/12 12:23:53;;;;;;;6.03;5.53;;;;;;;;;;5073023;28;20454;-61
2021/07/12 12:26:25;;;;;;;5.57;5.00;;;;;;;;;;5073500;28;20446;-60
2021/07/12 12:28:53;;;;;;;5.23;4.80;;;;;;;;;;5075662;28;20467;-60
2021/07/12 12:31:22;;;;;;;6.57;5.97;;;;;;;;;;5083069;28;20449;-61
2021/07/12 12:33:56;;;;;;;5.93;5.43;;;;;;;;;;5079821;28;20448;-60
2021/07/12 12:36:24;;;;;;;5.90;5.40;;;;;;;;;;5077592;28;20427;-60
2021/07/12 12:38:54;;;;;;;6.73;6.13;;;;;;;;;;5076864;28;20435;-61
2021/07/12 12:41:22;;;;;;;5.17;4.87;;;;;;;;;;5076903;28;20449;-62
2021/07/12 12:44:00;;;;;;;7.00;6.13;;;;;;;;;;5076997;28;20440;-62
2021/07/12 12:46:27;;;;;;;6.70;5.80;;;;;;;;;;5077133;28;20517;-62
2021/07/12 12:48:55;;;;;;;6.57;5.97;;;;;;;;;;5076532;28;20480;-61
2021/07/12 12:51:30;;;;;;;6.03;5.43;;;;;;;;;;5076254;28;20499;-61
2021/07/12 12:54:00;;;;;;;6.83;6.10;;;;;;;;;;5077025;28;20444;-61
2021/07/12 12:56:27;;;;;;;7.40;6.17;;;;;;;;;;5076337;28;20456;-62
2021/07/12 12:58:58;;;;;;;6.17;5.67;;;;;;;;;;5076450;28;20445;-61
2021/07/12 13:01:36;;;;;;;6.47;5.97;;;;;;;;;;5076847;28;20446;-62
2021/07/12 13:04:07;;;;;;;6.70;6.20;;;;;;;;;;5077423;28;20442;-62
2021/07/12 13:06:38;;;;;;;6.80;6.30;;;;;;;;;;5077113;28;20986;-61
2021/07/12 13:09:09;;;;;;;6.63;6.20;;;;;;;;;;5076590;28;20492;-62
2021/07/12 13:11:37;;;;;;;5.50;5.00;;;;;;;;;;5077035;28;20432;-63
2021/07/12 13:14:04;;;;;;;6.03;5.57;;;;;;;;;;5077072;28;20449;-62
2021/07/12 13:16:34;;;;;;;7.00;6.37;;;;;;;;;;5077221;28;20931;-61
2021/07/12 13:19:01;;;;;;;6.33;5.73;;;;;;;;;;5076980;28;20458;-62
2021/07/12 13:21:47;;;;;;;6.50;5.90;;;;;;;;;;5077302;28;20435;-61
2021/07/12 13:24:17;;;;;;;6.53;6.03;;;;;;;;;;5077031;28;20441;-63
2021/07/12 13:26:44;;;;;;;6.07;5.67;;;;;;;;;;5077784;28;20483;-63
2021/07/12 13:29:12;;;;;;;6.37;5.87;;;;;;;;;;5078546;28;20476;-62
2021/07/12 13:31:39;;;;;;;6.20;5.70;;;;;;;;;;5078201;28;20466;-61
2021/07/12 13:34:06;;;;;;;5.73;5.40;;;;;;;;;;5077907;28;20448;-61
2021/07/12 13:36:34;;;;;;;5.87;5.47;;;;;;;;;;5078557;28;20448;-60
2021/07/12 13:39:01;;;;;;;5.90;5.30;;;;;;;;;;5078363;28;20913;-62
2021/07/12 13:41:30;;;;;;;6.67;6.17;;;;;;;;;;5076908;28;20450;-62
2021/07/12 13:43:57;;;;;;;6.63;6.03;;;;;;;;;;5076604;28;20545;-61
2021/07/12 13:46:24;;;;;;;6.97;6.47;;;;;;;;;;5075628;28;20453;-62
2021/07/12 13:48:52;;;;;;;5.93;5.53;;;;;;;;;;5075909;28;20810;-61
2021/07/12 13:51:19;;;;;;;6.03;5.57;;;;;;;;;;5075636;28;20446;-62
2021/07/12 13:53:46;;;;;;;6.10;5.63;;;;;;;;;;5075828;28;20450;-61
2021/07/12 13:56:14;;;;;;;9.50;6.23;;;;;;;;;;5075654;28;20450;-62
2021/07/12 13:58:42;;;;;;;7.00;6.30;;;;;;;;;;5076113;28;20453;-61
2021/07/12 14:01:10;;;;;;;7.33;6.40;;;;;;;;;;5076028;28;20445;-62
2021/07/12 14:03:37;;;;;;;6.20;5.80;;;;;;;;;;5075539;28;20834;-62
2021/07/12 14:06:04;;;;;;;7.30;6.70;;;;;;;;;;5075597;28;20453;-59
2021/07/12 14:08:33;;;;;;;5.90;5.50;;;;;;;;;;5075265;28;20435;-61
2021/07/12 14:11:00;;;;;;;5.67;5.17;;;;;;;;;;5075308;28;20854;-62
2021/07/12 14:13:28;;;;;;;6.20;5.70;;;;;;;;;;5075649;28;20462;-60
2021/07/12 14:15:56;;;;;;;6.60;6.00;;;;;;;;;;5075411;28;20462;-60
2021/07/12 14:18:24;;;;;;;7.37;6.77;;;;;;;;;;5075749;28;20450;-59
2021/07/12 14:20:51;;;;;;;6.07;5.60;;;;;;;;;;5075430;28;20450;-60
2021/07/12 14:23:18;;;;;;;8.23;5.40;;;;;;;;;;5075355;28;20471;-61
2021/07/12 14:25:46;;;;;;;6.37;5.97;;;;;;;;;;5075101;28;20442;-61
2021/07/12 14:28:13;;;;;;;6.43;5.93;;;;;;;;;;5074469;28;20450;-61
2021/07/12 14:30:40;;;;;;;5.80;5.30;;;;;;;;;;5074678;28;20504;-62
2021/07/12 14:33:10;;;;;;;6.27;5.83;;;;;;;;;;5075115;28;20467;-60
2021/07/12 14:35:37;;;;;;;5.93;5.43;;;;;;;;;;5075156;28;20452;-61
2021/07/12 14:38:04;;;;;;;8.37;6.57;;;;;;;;;;5075421;28;20453;-61
2021/07/12 14:40:32;;;;;;;5.70;5.30;;;;;;;;;;5075210;28;20452;-61
2021/07/12 14:42:59;;;;;;;5.90;5.50;;;;;;;;;;5075120;28;20476;-61
2021/07/12 14:45:26;;;;;;;6.67;5.43;;;;;;;;;;5074888;28;20445;-62
2021/07/12 14:47:54;;;;;;;5.43;5.03;;;;;;;;;;5075070;28;20446;-61
2021/07/12 14:50:23;;;;;;;7.10;5.87;;;;;;;;;;5077136;28;20480;-62
2021/07/12 14:52:50;;;;;;;5.77;5.30;;;;;;;;;;5074513;28;20810;-62